ESOE/ORB METAR and TAF weather

Enter ICAO airport designator
Station Type Date Time Source
ESOE METAR 2018/10/16 14:20 UTC NOAA

ESOE 161420Z 10005KT 9999 BKN023 13/11 Q1018


Station Type Date Time Source
ESOE Decoded METAR 2018/10/16 14:20 UTC NOAA

Orebro Private , Sweden (ESOE) 59-14N 015-03E
Oct 16, 2018 - 10:20 AM EDT / 2018.10.16 1420 UTC
Wind: from the E (100 degrees) at 6 MPH (5 KT):0
Visibility: greater than 7 mile(s):0
Sky conditions: mostly cloudy
Temperature: 55 F (13 C)
Dew Point: 51 F (11 C)
Relative Humidity: 87%
Pressure (altimeter): 30.06 in. Hg (1018 hPa)
ob: ESOE 161420Z 10005KT 9999 BKN023 13/11 Q1018
cycle: 14

Station Type Date Time Source
ESOE TAF 2016/03/16 04:36 UTC NOAA

TAF TAF ESOE 160330Z 1604/1624 23005KT 9000 BR NSC PROB40 1604/1607 1200 BR


Example: see airport list